Time;durP1;ratioP1;P1;durP2;ratioP2;P2;SDS_P1;SDS_P2;PMS_P1;PMS_P2;Temp;Humidity;BMP_temperature;BMP_pressure;BME280_temperature;BME280_humidity;BME280_pressure;Samples;Min_cycle;Max_cycle;Signal;HPM_P1;HPM_P2
2023/01/28 00:02:18;;;;;;;15.82;10.43;;;;;;;2.03;92.33;102930.59;4938536;29;20038;-85
2023/01/28 00:04:43;;;;;;;16.65;10.00;;;;;;;2.01;91.97;102933.13;4938611;29;20031;-83
2023/01/28 00:07:09;;;;;;;18.25;10.73;;;;;;;1.86;91.88;102905.00;4938484;29;20484;-85
2023/01/28 00:09:34;;;;;;;16.35;10.10;;;;;;;1.98;92.19;102937.38;4938566;29;20077;-88
2023/01/28 00:11:59;;;;;;;16.30;10.30;;;;;;;1.70;91.88;102887.94;4938466;29;20087;-85
2023/01/28 00:14:25;;;;;;;16.35;9.95;;;;;;;2.03;91.93;102942.47;4938321;29;20028;-86
2023/01/28 00:16:50;;;;;;;15.52;9.93;;;;;;;1.63;91.93;102881.06;4937190;29;20039;-85
2023/01/28 00:19:15;;;;;;;16.77;10.00;;;;;;;1.78;91.41;102905.81;4937247;29;20048;-85
2023/01/28 00:21:41;;;;;;;18.33;10.88;;;;;;;1.94;92.15;102935.63;4938522;29;20460;-89
2023/01/28 00:24:08;;;;;;;14.32;9.98;;;;;;;1.93;91.37;102933.94;4938213;29;20416;-87
2023/01/28 00:26:34;;;;;;;16.42;9.98;;;;;;;1.93;91.51;102932.22;4938125;29;20028;-90
2023/01/28 00:28:59;;;;;;;14.55;9.90;;;;;;;1.77;91.83;102914.28;4937880;29;20503;-89
2023/01/28 00:31:26;;;;;;;15.77;10.25;;;;;;;1.97;92.55;102945.84;4937946;29;20035;-90
2023/01/28 00:33:53;;;;;;;16.05;9.85;;;;;;;1.80;92.70;102924.50;4938042;29;20020;-89
2023/01/28 00:36:20;;;;;;;14.45;9.15;;;;;;;1.75;92.93;102916.81;4937958;29;20483;-88
2023/01/28 00:38:57;;;;;;;16.27;10.32;;;;;;;1.78;93.24;102924.50;4936974;29;20035;-91
2023/01/28 00:41:25;;;;;;;13.23;8.77;;;;;;;1.87;92.95;102941.50;4938132;29;20032;-89
2023/01/28 00:43:51;;;;;;;15.07;9.88;;;;;;;1.78;93.49;102927.03;4937733;29;20110;-90
2023/01/28 00:46:17;;;;;;;14.60;9.88;;;;;;;1.95;93.40;102947.53;4937669;29;20103;-90
2023/01/28 00:48:43;;;;;;;15.40;9.57;;;;;;;1.94;92.17;102953.47;4937834;29;20046;-90
2023/01/28 00:51:10;;;;;;;15.32;9.77;;;;;;;1.57;92.51;102889.50;4937909;29;20043;-89
2023/01/28 00:53:37;;;;;;;14.68;9.63;;;;;;;1.91;92.11;102953.44;4938477;29;20024;-87
2023/01/28 00:56:04;;;;;;;16.25;9.85;;;;;;;1.89;91.89;102958.53;4937868;29;20445;-80
2023/01/28 00:58:30;;;;;;;13.95;9.30;;;;;;;1.85;92.63;102949.16;4937631;29;20039;-79
2023/01/28 01:00:55;;;;;;;15.00;9.32;;;;;;;1.88;92.52;102956.00;4937306;29;20094;-81
2023/01/28 01:03:21;;;;;;;17.33;10.60;;;;;;;1.93;92.80;102959.41;4937530;29;20023;-80
2023/01/28 01:05:46;;;;;;;16.13;10.45;;;;;;;1.96;92.82;102967.06;4936640;29;20119;-80
2023/01/28 01:08:12;;;;;;;14.75;9.65;;;;;;;1.81;92.05;102937.25;4937443;29;20055;-79
2023/01/28 01:10:38;;;;;;;14.30;9.50;;;;;;;1.71;92.62;102923.59;4937581;29;20030;-80
2023/01/28 01:13:06;;;;;;;14.60;9.30;;;;;;;1.91;93.05;102958.53;4937356;29;20464;-80
2023/01/28 01:15:32;;;;;;;14.50;9.68;;;;;;;1.90;92.87;102959.38;4937309;29;20424;-80
2023/01/28 01:17:57;;;;;;;15.15;9.40;;;;;;;1.87;93.04;102954.25;4937259;29;20036;-80
2023/01/28 01:20:27;;;;;;;16.67;10.23;;;;;;;1.66;91.55;102932.03;4937497;29;20078;-80
2023/01/28 01:22:53;;;;;;;14.80;9.52;;;;;;;1.76;90.43;102945.69;4937502;29;20024;-80
2023/01/28 01:25:19;;;;;;;15.50;9.73;;;;;;;1.67;90.88;102928.63;4937148;29;20038;-80
2023/01/28 01:27:48;;;;;;;15.75;10.10;;;;;;;1.67;90.13;102921.88;4937033;29;20115;-80
2023/01/28 01:30:14;;;;;;;15.13;9.52;;;;;;;1.63;90.54;102909.94;4937012;29;20028;-81
2023/01/28 01:32:40;;;;;;;15.50;10.13;;;;;;;1.72;90.36;102924.44;4936828;29;20494;-80
2023/01/28 01:35:06;;;;;;;15.73;10.63;;;;;;;1.86;90.81;102945.75;4936959;29;20110;-80
2023/01/28 01:37:32;;;;;;;15.70;9.68;;;;;;;1.66;90.70;102916.75;4937003;29;20472;-80
2023/01/28 01:39:58;;;;;;;15.70;10.07;;;;;;;1.61;90.86;102923.50;4936979;29;20058;-80
2023/01/28 01:42:24;;;;;;;16.45;9.95;;;;;;;1.70;90.99;102939.72;4936610;29;20020;-79
2023/01/28 01:45:04;;;;;;;15.98;9.82;;;;;;;1.83;91.01;102966.13;4936677;29;20024;-80
2023/01/28 01:47:37;;;;;;;15.43;9.65;;;;;;;1.66;90.99;102932.03;4936561;29;20035;-81
2023/01/28 01:50:17;;;;;;;14.48;9.07;;;;;;;1.78;91.01;102946.56;4936592;29;20548;-80
2023/01/28 01:52:44;;;;;;;14.73;9.25;;;;;;;1.76;90.29;102959.28;4936723;29;20039;-81
2023/01/28 01:55:14;;;;;;;14.13;9.32;;;;;;;1.73;90.42;102960.09;4936656;29;20079;-79
2023/01/28 01:57:42;;;;;;;15.80;9.35;;;;;;;1.72;90.01;102965.19;4936578;29;20039;-80
2023/01/28 02:00:09;;;;;;;13.32;8.80;;;;;;;1.34;90.34;102904.63;4936024;29;20138;-80
2023/01/28 02:02:39;;;;;;;15.60;9.80;;;;;;;1.56;90.58;102946.38;4936655;29;20067;-81
2023/01/28 02:05:07;;;;;;;16.02;10.20;;;;;;;1.70;90.84;102964.34;4936679;29;20016;-79
2023/01/28 02:07:33;;;;;;;15.40;9.50;;;;;;;1.59;90.95;102945.56;4936313;29;20498;-80
2023/01/28 02:09:58;;;;;;;15.68;9.43;;;;;;;1.67;90.64;102962.63;4936251;29;20476;-79
2023/01/28 02:12:31;;;;;;;14.10;8.98;;;;;;;1.72;90.95;102966.03;4936345;29;20031;-80
2023/01/28 02:15:03;;;;;;;14.55;9.20;;;;;;;0.98;90.07;102854.25;4936282;29;20486;-80
2023/01/28 02:17:29;;;;;;;15.43;9.80;;;;;;;1.50;89.06;102945.50;4936219;29;20038;-80
2023/01/28 02:19:57;;;;;;;14.48;9.63;;;;;;;1.67;89.52;102967.72;4936374;29;20032;-80
2023/01/28 02:22:38;;;;;;;14.40;9.20;;;;;;;1.66;89.29;102972.78;4936239;29;20038;-80
2023/01/28 02:25:28;;;;;;;14.93;9.68;;;;;;;1.67;89.69;102969.38;4935994;29;20114;-80
2023/01/28 02:28:09;;;;;;;16.38;10.02;;;;;;;1.67;90.50;102966.84;4936396;29;20043;-85
2023/01/28 02:30:39;;;;;;;15.18;9.60;;;;;;;1.69;89.66;102965.19;4934590;29;20047;-81
2023/01/28 02:33:11;;;;;;;13.27;8.90;;;;;;;1.69;89.57;102966.03;4935963;29;20024;-83
2023/01/28 02:35:41;;;;;;;15.25;9.90;;;;;;;1.67;88.44;102969.38;4935855;29;20460;-85
2023/01/28 02:38:11;;;;;;;16.73;9.80;;;;;;;1.66;88.36;102965.13;4936074;29;20038;-89
2023/01/28 02:43:33;;;;;;;14.32;9.40;;;;;;;1.68;88.00;102966.03;4936207;29;20400;-87
2023/01/28 02:48:53;;;;;;;14.35;9.27;;;;;;;1.68;85.67;102961.78;4935829;29;20043;-83
2023/01/28 02:51:52;;;;;;;13.25;8.20;;;;;;;1.68;86.19;102969.41;4935757;29;20040;-82
2023/01/28 02:54:31;;;;;;;13.20;8.48;;;;;;;1.13;84.51;102879.84;4934931;29;20035;-85
2023/01/28 02:57:27;;;;;;;13.90;8.38;;;;;;;1.70;84.37;102964.34;4935774;29;20091;-87
2023/01/28 03:00:26;;;;;;;13.18;8.23;;;;;;;1.69;85.19;102972.81;4935532;29;20126;-85
2023/01/28 03:02:56;;;;;;;13.73;8.60;;;;;;;1.64;85.18;102970.22;4935408;29;20372;-85
2023/01/28 03:05:31;;;;;;;13.70;8.73;;;;;;;1.62;85.95;102973.59;4935369;29;20494;-86
2023/01/28 03:07:56;;;;;;;14.02;9.10;;;;;;;1.24;86.32;102907.06;4935765;29;20028;-84
2023/01/28 03:10:26;;;;;;;14.55;9.05;;;;;;;1.43;87.00;102942.88;4935486;29;20038;-86
2023/01/28 03:38:24;;;;;;;19.63;11.45;;;;;;;1.35;92.42;102966.56;4935563;29;20121;-83
2023/01/28 03:41:01;;;;;;;17.92;10.90;;;;;;;1.24;93.04;102951.19;4935174;29;20118;-85
2023/01/28 03:43:28;;;;;;;18.17;10.77;;;;;;;1.11;93.42;102936.66;4935533;29;20110;-84
2023/01/28 03:45:54;;;;;;;17.20;10.27;;;;;;;1.07;93.39;102929.81;4935392;29;20123;-87
2023/01/28 03:48:23;;;;;;;20.60;11.73;;;;;;;1.35;93.24;102966.56;4934805;29;20107;-81
2023/01/28 03:50:49;;;;;;;19.60;11.77;;;;;;;1.36;93.91;102973.34;4935144;29;20404;-80
2023/01/28 03:53:15;;;;;;;19.15;11.43;;;;;;;1.24;93.34;102958.81;4935197;29;20036;-80
2023/01/28 03:55:41;;;;;;;17.20;10.77;;;;;;;1.33;93.40;102975.88;4935317;29;20042;-81
2023/01/28 03:58:11;;;;;;;18.58;10.90;;;;;;;1.03;93.52;102946.72;4935166;29;20036;-80
2023/01/28 04:00:40;;;;;;;19.35;11.77;;;;;;;1.24;93.22;102970.69;4935070;29;20106;-85
2023/01/28 04:03:15;;;;;;;18.33;10.88;;;;;;;1.35;93.02;102997.97;4934778;29;20066;-80
2023/01/28 04:05:46;;;;;;;18.90;11.38;;;;;;;1.33;93.64;102996.25;4936679;29;20437;-80
2023/01/28 04:08:12;;;;;;;18.70;10.77;;;;;;;1.33;93.85;102998.78;4938475;29;20480;-81
2023/01/28 04:10:39;;;;;;;19.38;11.43;;;;;;;1.32;93.68;103002.16;4938591;29;20478;-79
2023/01/28 04:13:06;;;;;;;19.70;11.02;;;;;;;1.33;93.43;103002.19;4938737;29;20024;-80
2023/01/28 04:15:32;;;;;;;19.17;11.35;;;;;;;1.19;93.75;102980.84;4938391;29;20031;-88
2023/01/28 04:17:59;;;;;;;20.15;11.73;;;;;;;1.32;93.39;103004.72;4938602;29;20039;-88
2023/01/28 04:20:25;;;;;;;18.70;11.02;;;;;;;1.17;93.08;102987.56;4938613;29;20395;-87
2023/01/28 04:22:50;;;;;;;19.58;11.35;;;;;;;1.28;93.69;103002.97;4938394;29;20027;-87
2023/01/28 04:25:16;;;;;;;20.95;11.75;;;;;;;1.08;93.63;102967.13;4938360;29;20083;-87
2023/01/28 04:27:41;;;;;;;18.75;10.45;;;;;;;1.06;93.77;102961.16;4938158;29;20107;-89
2023/01/28 04:30:07;;;;;;;19.25;11.32;;;;;;;1.27;93.55;103002.09;4938261;29;20038;-89
2023/01/28 04:32:32;;;;;;;19.92;11.57;;;;;;;1.29;93.31;102995.38;4938204;29;20055;-87
2023/01/28 04:34:57;;;;;;;19.42;11.20;;;;;;;1.17;92.96;102968.91;4938290;29;20051;-87
2023/01/28 04:37:23;;;;;;;19.25;11.35;;;;;;;1.29;93.44;102986.88;4938065;29;20040;-87
2023/01/28 04:39:48;;;;;;;18.63;10.65;;;;;;;1.25;93.48;102988.53;4937965;29;20029;-89
2023/01/28 04:42:13;;;;;;;20.13;11.25;;;;;;;1.25;93.22;102990.22;4938322;29;20037;-87
2023/01/28 04:44:39;;;;;;;18.73;10.85;;;;;;;1.05;93.05;102949.28;4937909;29;20024;-87
2023/01/28 04:47:04;;;;;;;18.70;10.82;;;;;;;0.92;93.03;102934.75;4937993;29;20032;-86
2023/01/28 04:49:29;;;;;;;20.75;11.63;;;;;;;0.86;92.92;102922.81;4938062;29;20031;-79
2023/01/28 04:51:55;;;;;;;19.73;11.30;;;;;;;1.10;92.76;102965.47;4937954;29;20032;-80
2023/01/28 04:54:20;;;;;;;18.85;11.45;;;;;;;1.05;92.58;102962.00;4937973;29;20039;-79
2023/01/28 04:56:45;;;;;;;18.48;11.05;;;;;;;1.20;92.02;102986.78;4937996;29;20507;-80
2023/01/28 04:59:11;;;;;;;20.40;11.07;;;;;;;1.04;91.83;102975.56;4937393;29;20052;-79
2023/01/28 05:01:36;;;;;;;19.08;11.60;;;;;;;1.22;91.88;102997.81;4937617;29;20051;-80
2023/01/28 05:04:04;;;;;;;20.15;11.10;;;;;;;1.20;91.48;103008.00;4937582;29;20046;-79
2023/01/28 05:06:30;;;;;;;18.27;11.00;;;;;;;0.83;91.69;102963.47;4937559;29;20103;-80
2023/01/28 05:08:56;;;;;;;17.67;10.27;;;;;;;0.83;90.54;102966.00;4937498;29;20514;-79
2023/01/28 05:11:22;;;;;;;18.40;10.77;;;;;;;1.13;91.09;103011.31;4937623;29;20043;-79
2023/01/28 05:13:47;;;;;;;19.67;11.13;;;;;;;0.70;91.80;102943.84;4937248;29;20036;-79
2023/01/28 05:16:13;;;;;;;17.45;10.60;;;;;;;1.12;91.80;103017.22;4937015;29;20091;-82
2023/01/28 05:18:38;;;;;;;18.17;10.98;;;;;;;1.10;91.16;103021.44;4936679;29;20035;-80
2023/01/28 05:21:04;;;;;;;16.58;10.48;;;;;;;1.06;91.18;103020.53;4937245;29;20027;-79
2023/01/28 05:23:29;;;;;;;15.50;9.43;;;;;;;1.01;87.88;103003.53;4937333;29;20042;-79
2023/01/28 05:25:54;;;;;;;15.48;8.93;;;;;;;1.05;86.85;103018.84;4937079;29;20039;-79
2023/01/28 05:28:20;;;;;;;15.20;9.50;;;;;;;1.07;87.12;103012.06;4937235;29;20031;-80
2023/01/28 05:30:45;;;;;;;14.25;8.70;;;;;;;1.07;85.49;103011.22;4937357;29;20440;-80
2023/01/28 05:33:10;;;;;;;14.00;8.75;;;;;;;1.07;83.74;103014.63;4936989;29;20024;-80
2023/01/28 05:35:36;;;;;;;14.68;8.95;;;;;;;1.08;83.53;103007.84;4936952;29;20472;-81
2023/01/28 05:38:02;;;;;;;15.57;9.40;;;;;;;0.95;84.40;102991.59;4937074;29;20050;-79
2023/01/28 05:40:27;;;;;;;15.48;9.43;;;;;;;1.09;82.65;103009.56;4937081;29;20082;-84
2023/01/28 05:42:52;;;;;;;15.35;9.07;;;;;;;1.04;82.64;102991.69;4936898;29;20472;-82
2023/01/28 05:45:18;;;;;;;14.55;9.13;;;;;;;1.09;82.62;102999.41;4936828;29;20111;-82
2023/01/28 05:47:43;;;;;;;13.10;8.40;;;;;;;1.10;83.26;102998.56;4937153;29;20110;-87
2023/01/28 05:50:11;;;;;;;15.50;9.65;;;;;;;1.07;83.33;103001.91;4935668;29;20123;-84
2023/01/28 05:52:36;;;;;;;17.58;9.52;;;;;;;0.88;83.80;102963.50;4936770;29;20436;-83
2023/01/28 05:55:03;;;;;;;16.45;9.82;;;;;;;1.12;84.12;103007.91;4936620;29;20020;-83
2023/01/28 05:57:28;;;;;;;18.25;10.00;;;;;;;1.13;84.25;103008.75;4936756;29;20546;-85
2023/01/28 05:59:53;;;;;;;16.52;10.15;;;;;;;1.10;83.86;103018.91;4936376;29;20052;-80
2023/01/28 06:02:19;;;;;;;16.73;9.98;;;;;;;0.81;82.70;102957.53;4936650;29;20024;-84
2023/01/28 06:04:44;;;;;;;17.75;9.90;;;;;;;0.92;83.46;102978.84;4936398;29;20024;-83
2023/01/28 06:07:12;;;;;;;18.10;10.98;;;;;;;1.05;82.90;103005.25;4936269;29;20523;-85
2023/01/28 06:09:37;;;;;;;18.33;10.82;;;;;;;1.07;82.81;103022.25;4935048;29;20472;-86
2023/01/28 06:12:02;;;;;;;17.45;10.32;;;;;;;0.97;82.66;102997.53;4936225;29;20111;-87
2023/01/28 06:14:28;;;;;;;17.73;10.23;;;;;;;1.08;83.03;103018.00;4936437;29;20160;-83
2023/01/28 06:16:53;;;;;;;17.95;10.40;;;;;;;1.07;83.61;103021.41;4936420;29;20480;-85
2023/01/28 06:19:18;;;;;;;18.13;11.02;;;;;;;1.05;83.55;103020.53;4936127;29;20039;-83
2023/01/28 06:21:44;;;;;;;17.33;10.38;;;;;;;0.63;83.44;102950.53;4936035;29;20023;-85
2023/01/28 06:24:09;;;;;;;17.58;10.68;;;;;;;1.02;83.46;103012.88;4936032;29;20028;-86
2023/01/28 06:26:34;;;;;;;17.95;10.57;;;;;;;0.78;83.97;102981.19;4936141;29;20035;-85
2023/01/28 06:29:00;;;;;;;19.02;11.13;;;;;;;0.86;83.38;102999.09;4935886;29;20205;-86
2023/01/28 06:31:25;;;;;;;18.08;10.18;;;;;;;0.63;84.05;102962.38;4936124;29;20156;-85
2023/01/28 06:33:50;;;;;;;18.20;10.80;;;;;;;0.65;84.14;102971.72;4935969;29;20031;-86
2023/01/28 06:36:16;;;;;;;17.48;9.98;;;;;;;0.64;84.17;102975.09;4935857;29;20111;-82
2023/01/28 06:38:41;;;;;;;17.92;10.48;;;;;;;0.71;82.88;102987.06;4935942;29;20052;-85
2023/01/28 06:41:06;;;;;;;18.17;10.38;;;;;;;0.89;82.38;103024.59;4935878;29;20032;-80
2023/01/28 06:43:32;;;;;;;19.55;10.65;;;;;;;0.90;81.86;103020.38;4935810;29;20034;-78
2023/01/28 06:45:57;;;;;;;17.90;11.00;;;;;;;0.92;81.79;103032.25;4935933;29;20035;-79
2023/01/28 06:48:23;;;;;;;17.27;10.30;;;;;;;0.81;82.01;103024.50;4935683;29;20036;-79
2023/01/28 06:50:50;;;;;;;18.63;10.90;;;;;;;0.74;82.65;103001.50;4935534;29;20027;-79
2023/01/28 06:53:17;;;;;;;19.90;10.50;;;;;;;0.91;82.80;103022.91;4935654;29;20106;-80
2023/01/28 06:55:42;;;;;;;19.17;10.77;;;;;;;0.70;81.17;102989.59;4935685;29;20034;-79
2023/01/28 06:58:07;;;;;;;19.05;10.73;;;;;;;0.60;81.38;102970.84;4935466;29;20467;-79
2023/01/28 07:00:33;;;;;;;18.88;10.23;;;;;;;0.62;80.89;102979.31;4935340;29;20165;-79
2023/01/28 07:02:58;;;;;;;18.77;10.82;;;;;;;0.93;81.48;103038.19;4935758;29;20099;-79
2023/01/28 07:05:24;;;;;;;17.98;10.65;;;;;;;0.56;81.71;102985.16;4935486;29;20026;-79
2023/01/28 07:07:50;;;;;;;18.15;10.93;;;;;;;0.83;81.99;103019.44;4935359;29;20031;-79
2023/01/28 07:10:15;;;;;;;18.30;10.80;;;;;;;0.86;79.94;103038.09;4935615;29;20532;-79
2023/01/28 07:12:41;;;;;;;20.15;11.43;;;;;;;0.86;80.46;103039.81;4935341;29;20106;-79
2023/01/28 07:15:07;;;;;;;17.55;10.20;;;;;;;0.77;80.23;103030.34;4935382;29;20032;-86
2023/01/28 07:17:32;;;;;;;18.73;11.52;;;;;;;0.83;79.92;103044.84;4935663;29;20440;-84
2023/01/28 07:19:58;;;;;;;18.98;10.48;;;;;;;0.84;79.44;103055.03;4935466;29;20027;-79
2023/01/28 07:22:23;;;;;;;19.30;11.73;;;;;;;0.84;79.64;103056.75;4935404;29;20040;-82
2023/01/28 07:24:48;;;;;;;18.48;11.00;;;;;;;0.64;79.10;103025.09;4935584;29;20031;-78
2023/01/28 07:27:14;;;;;;;17.92;10.10;;;;;;;0.81;78.83;103065.19;4935384;29;20028;-79
2023/01/28 07:29:39;;;;;;;18.77;10.75;;;;;;;0.66;79.66;103039.53;4935306;29;20384;-79
2023/01/28 07:32:06;;;;;;;20.23;12.00;;;;;;;0.60;80.69;103034.38;4935256;29;20376;-79
2023/01/28 07:34:31;;;;;;;19.02;11.43;;;;;;;0.76;80.10;103066.81;4935432;29;20136;-79
2023/01/28 07:36:57;;;;;;;17.73;10.40;;;;;;;0.77;79.86;103073.59;4935259;29;20107;-81
2023/01/28 07:39:22;;;;;;;18.35;10.95;;;;;;;0.70;80.59;103050.63;4935307;29;20038;-84
2023/01/28 07:41:47;;;;;;;18.40;10.98;;;;;;;0.65;79.85;103045.47;4938895;29;20035;-82
2023/01/28 07:44:13;;;;;;;17.08;10.20;;;;;;;0.86;80.56;103078.81;4939110;29;20027;-80
2023/01/28 07:46:38;;;;;;;18.35;10.32;;;;;;;0.63;81.12;103029.34;4938766;29;20035;-83
2023/01/28 07:49:03;;;;;;;19.02;11.13;;;;;;;0.90;81.65;103063.59;4948486;29;20078;-81
2023/01/28 07:51:29;;;;;;;17.92;10.82;;;;;;;0.62;80.82;103011.53;4958542;29;20027;-81
2023/01/28 07:53:54;;;;;;;18.63;11.15;;;;;;;0.72;81.10;103023.53;4958411;29;20019;-83
2023/01/28 07:56:19;;;;;;;20.23;10.65;;;;;;;1.07;81.52;103085.84;4956523;29;20045;-81
2023/01/28 07:58:48;;;;;;;20.80;12.00;;;;;;;1.11;81.77;103069.81;4959176;29;20023;-84
2023/01/28 08:01:14;;;;;;;19.40;11.02;;;;;;;1.16;82.06;103072.41;4957268;28;20400;-86
2023/01/28 08:03:39;;;;;;;20.17;12.10;;;;;;;1.12;82.01;103061.34;4957978;28;20027;-84
2023/01/28 08:06:04;;;;;;;18.95;11.30;;;;;;;1.18;80.54;103074.94;4957629;29;20030;-84
2023/01/28 08:08:30;;;;;;;17.75;10.48;;;;;;;1.20;81.01;103075.84;4957919;29;20038;-82
2023/01/28 08:10:55;;;;;;;18.25;11.23;;;;;;;1.14;81.60;103067.28;4957599;29;20506;-84
2023/01/28 08:13:21;;;;;;;17.90;10.90;;;;;;;1.26;80.13;103084.41;4957638;28;20027;-83
2023/01/28 08:15:46;;;;;;;18.73;10.82;;;;;;;1.14;80.12;103074.06;4957667;29;20067;-88
2023/01/28 08:18:13;;;;;;;20.42;11.60;;;;;;;1.32;80.71;103098.91;4957745;29;20023;-81
2023/01/28 08:20:40;;;;;;;19.13;11.73;;;;;;;1.36;81.58;103108.25;4957502;28;20027;-84
2023/01/28 08:23:17;;;;;;;20.95;10.43;;;;;;;1.37;81.05;103118.47;4957233;28;20058;-87
2023/01/28 08:25:42;;;;;;;16.95;10.82;;;;;;;1.34;79.93;103108.25;4956961;28;20054;-81
2023/01/28 08:28:08;;;;;;;19.75;10.55;;;;;;;1.12;80.19;103075.75;4957284;28;20035;-84
2023/01/28 08:30:36;;;;;;;21.55;11.60;;;;;;;1.33;80.61;103106.53;4957193;28;20030;-84
2023/01/28 08:33:03;;;;;;;17.15;9.98;;;;;;;1.44;81.28;103115.16;4957575;28;20114;-83
2023/01/28 08:35:29;;;;;;;22.58;11.65;;;;;;;1.43;80.26;103107.50;4957487;28;20035;-83
2023/01/28 08:37:54;;;;;;;19.35;10.70;;;;;;;1.32;80.83;103078.53;4957348;28;20031;-84
2023/01/28 08:40:20;;;;;;;18.45;11.25;;;;;;;1.64;81.00;103122.16;4957430;28;20050;-85
2023/01/28 08:42:50;;;;;;;19.83;10.95;;;;;;;1.25;79.95;103057.25;4957108;28;20036;-83
2023/01/28 08:45:16;;;;;;;17.27;10.13;;;;;;;1.64;80.51;103127.25;4957212;28;20030;-82
2023/01/28 08:47:52;;;;;;;18.65;11.48;;;;;;;1.49;80.55;103105.03;4957188;28;20028;-81
2023/01/28 08:50:20;;;;;;;19.05;11.70;;;;;;;1.18;79.92;103063.13;4956962;28;20039;-80
2023/01/28 08:52:46;;;;;;;19.55;11.52;;;;;;;1.28;80.25;103094.59;4955586;28;20019;-83
2023/01/28 08:55:12;;;;;;;20.30;12.05;;;;;;;1.45;81.38;103128.75;4956988;28;20027;-87
2023/01/28 08:57:38;;;;;;;21.35;12.20;;;;;;;0.97;81.45;103056.06;4956767;28;20063;-83
2023/01/28 09:00:05;;;;;;;22.05;11.77;;;;;;;1.33;80.56;103123.50;4956679;28;20055;-84
2023/01/28 09:02:30;;;;;;;18.60;11.13;;;;;;;1.18;81.11;103087.69;4957096;28;20114;-82
2023/01/28 09:04:56;;;;;;;18.35;11.30;;;;;;;1.04;80.05;103072.25;4956701;28;20475;-83
2023/01/28 09:07:21;;;;;;;21.15;12.45;;;;;;;1.42;81.18;103126.16;4956447;28;20027;-83
2023/01/28 09:09:47;;;;;;;19.77;12.07;;;;;;;1.40;81.24;103141.44;4956746;28;20387;-83
2023/01/28 09:12:12;;;;;;;21.05;12.32;;;;;;;1.34;80.89;103148.97;4956733;28;20035;-86
2023/01/28 09:14:37;;;;;;;19.60;11.88;;;;;;;1.04;80.43;103113.81;4952342;28;20492;-83
2023/01/28 09:17:06;;;;;;;20.90;12.15;;;;;;;1.21;81.17;103159.00;4937674;29;20468;-83
2023/01/28 09:19:31;;;;;;;21.05;12.68;;;;;;;1.15;81.34;103147.88;4937461;29;20110;-81
2023/01/28 09:21:56;;;;;;;20.45;12.95;;;;;;;1.08;81.89;103132.50;4937241;29;20051;-81
2023/01/28 09:24:22;;;;;;;20.55;12.20;;;;;;;1.14;81.35;103151.28;4945834;29;20119;-79
2023/01/28 09:26:48;;;;;;;19.88;12.23;;;;;;;1.15;81.65;103160.59;4955440;29;20408;-81
2023/01/28 09:29:13;;;;;;;18.45;11.85;;;;;;;0.92;81.25;103115.34;4956281;28;20071;-84
2023/01/28 09:31:39;;;;;;;19.25;11.88;;;;;;;1.13;79.83;103151.25;4956135;29;20066;-82
2023/01/28 09:34:05;;;;;;;19.00;11.60;;;;;;;1.23;79.53;103172.59;4956587;28;20036;-78
2023/01/28 09:36:31;;;;;;;20.00;11.68;;;;;;;1.07;80.81;103148.63;4956269;28;20067;-78
2023/01/28 09:38:57;;;;;;;17.75;11.00;;;;;;;0.80;79.42;103110.94;4955529;28;20074;-83
2023/01/28 09:41:29;;;;;;;16.65;11.15;;;;;;;1.27;79.35;103181.97;4955913;29;20423;-82
2023/01/28 09:44:12;;;;;;;18.52;11.40;;;;;;;1.06;79.54;103139.28;4956005;28;20028;-84
2023/01/28 09:46:39;;;;;;;19.10;12.20;;;;;;;1.06;79.73;103129.09;4955825;28;20101;-83
2023/01/28 09:49:16;;;;;;;19.50;11.85;;;;;;;1.14;79.08;103140.25;4955756;28;20114;-84
2023/01/28 09:51:46;;;;;;;18.75;11.65;;;;;;;1.41;79.33;103185.56;4955986;28;20135;-84
2023/01/28 09:54:25;;;;;;;18.88;11.68;;;;;;;1.32;79.48;103155.75;4955626;28;20023;-85
2023/01/28 09:56:55;;;;;;;17.40;11.15;;;;;;;1.42;78.78;103175.41;4955684;28;20023;-87
2023/01/28 09:59:22;;;;;;;17.45;11.00;;;;;;;1.40;77.95;103178.75;4954636;29;20039;-86
2023/01/28 10:01:50;;;;;;;17.45;11.02;;;;;;;1.38;77.92;103183.84;4955648;28;20055;-81
2023/01/28 10:04:38;;;;;;;17.77;11.32;;;;;;;1.23;78.49;103175.13;4955122;28;20040;-83
2023/01/28 10:07:11;;;;;;;17.23;11.20;;;;;;;1.37;78.39;103199.91;4955607;28;20031;-80
2023/01/28 10:09:44;;;;;;;18.08;11.35;;;;;;;1.13;79.87;103157.19;4955304;29;20098;-81
2023/01/28 10:12:18;;;;;;;18.25;11.27;;;;;;;0.68;79.05;103068.38;4955637;28;20032;-80
2023/01/28 10:15:17;;;;;;;16.55;10.30;;;;;;;1.46;78.77;103205.97;4954184;29;20035;-83
2023/01/28 10:17:46;;;;;;;17.42;9.60;;;;;;;1.45;77.72;103207.66;4955351;28;20038;-80
2023/01/28 10:20:12;;;;;;;17.13;10.15;;;;;;;1.45;78.33;103205.13;4955518;29;20028;-80
2023/01/28 10:23:07;;;;;;;16.30;9.80;;;;;;;1.48;78.56;103199.25;4955371;28;20399;-79
2023/01/28 10:25:33;;;;;;;16.67;10.10;;;;;;;1.35;78.22;103193.97;4950714;29;20492;-80
2023/01/28 10:28:01;;;;;;;17.50;10.07;;;;;;;1.42;78.89;103202.53;4955154;28;20055;-79
2023/01/28 10:30:30;;;;;;;17.42;10.65;;;;;;;1.21;78.04;103159.00;4955104;28;20081;-79
2023/01/28 10:33:03;;;;;;;17.00;10.27;;;;;;;1.33;77.52;103176.97;4955162;28;20492;-82
2023/01/28 10:35:34;;;;;;;18.70;10.70;;;;;;;1.35;78.03;103182.94;4955020;28;20031;-82
2023/01/28 10:38:06;;;;;;;18.75;11.25;;;;;;;0.95;77.90;103123.00;4955012;28;20471;-81
2023/01/28 10:40:31;;;;;;;18.25;10.68;;;;;;;1.41;78.78;103191.50;4955090;28;20024;-82
2023/01/28 10:42:57;;;;;;;18.50;10.38;;;;;;;1.48;79.17;103192.44;4954804;28;20033;-82
2023/01/28 10:45:27;;;;;;;17.27;10.07;;;;;;;1.18;79.56;103141.13;4953421;29;20039;-82
2023/01/28 10:47:59;;;;;;;19.20;11.20;;;;;;;1.45;80.22;103187.28;4953583;29;20062;-84
2023/01/28 10:50:27;;;;;;;18.45;10.38;;;;;;;1.50;80.62;103183.13;4954867;28;20019;-84
2023/01/28 10:53:01;;;;;;;18.92;10.77;;;;;;;1.52;79.73;103191.66;4954997;28;20364;-83
2023/01/28 10:55:33;;;;;;;20.95;11.40;;;;;;;1.38;79.91;103166.03;4954605;28;20432;-85
2023/01/28 10:57:58;;;;;;;;;;;;;;;1.50;80.64;103190.78;4955435;28;20113;-83
2023/01/28 11:00:36;;;;;;;18.17;10.07;;;;;;;1.47;80.10;103184.75;4954674;28;20026;-87
2023/01/28 11:03:01;;;;;;;19.38;10.88;;;;;;;1.39;80.31;103164.31;4955052;28;20035;-84
2023/01/28 11:05:30;;;;;;;18.17;10.80;;;;;;;1.46;78.40;103163.53;4953171;29;20094;-79
2023/01/28 11:08:13;;;;;;;18.17;10.23;;;;;;;1.65;78.53;103179.91;4954625;28;20023;-80
2023/01/28 11:10:39;;;;;;;17.10;9.52;;;;;;;1.55;78.26;103142.44;4954502;28;20023;-79
2023/01/28 11:13:13;;;;;;;17.05;9.85;;;;;;;1.72;76.69;103167.25;4954799;29;20384;-80
2023/01/28 11:15:46;;;;;;;17.55;10.23;;;;;;;1.86;78.02;103171.66;4952605;29;20024;-86
2023/01/28 11:18:19;;;;;;;18.88;10.98;;;;;;;1.62;77.36;103121.31;4954711;28;20031;-87
2023/01/28 11:20:51;;;;;;;15.93;9.77;;;;;;;2.00;77.10;103168.41;4954411;28;20039;-87
2023/01/28 11:23:27;;;;;;;16.98;9.32;;;;;;;1.93;77.57;103125.00;4952983;29;20062;-84
2023/01/28 11:26:04;;;;;;;16.77;8.55;;;;;;;2.04;76.54;103123.41;4954451;28;20403;-84
2023/01/28 11:28:30;;;;;;;16.50;9.55;;;;;;;2.28;77.39;103149.16;4954450;28;20057;-84
2023/01/28 11:30:59;;;;;;;16.73;9.35;;;;;;;2.39;76.46;103146.69;4954490;28;20514;-82
2023/01/28 11:33:38;;;;;;;14.95;9.00;;;;;;;2.40;75.93;103140.75;4954390;28;20593;-80
2023/01/28 11:36:17;;;;;;;11.60;7.00;;;;;;;2.27;74.20;103142.34;4954720;28;20408;-83
2023/01/28 11:38:50;;;;;;;12.23;6.95;;;;;;;2.17;74.48;103116.75;4954438;28;20030;-84
2023/01/28 11:41:15;;;;;;;13.73;7.50;;;;;;;2.38;75.26;103132.22;4954378;28;20046;-81
2023/01/28 11:43:44;;;;;;;12.52;7.45;;;;;;;2.37;75.07;103120.31;4953091;29;20028;-80
2023/01/28 11:46:18;;;;;;;12.60;7.35;;;;;;;2.37;73.21;103122.88;4954421;28;20033;-79
2023/01/28 11:48:50;;;;;;;12.82;7.60;;;;;;;2.34;74.25;103104.97;4954397;29;20031;-81
2023/01/28 11:51:21;;;;;;;13.65;8.52;;;;;;;2.37;74.26;103094.81;4954369;28;20038;-83
2023/01/28 11:53:55;;;;;;;12.00;7.78;;;;;;;2.29;73.61;103084.56;4954262;29;20083;-82
2023/01/28 11:56:48;;;;;;;13.00;7.90;;;;;;;2.28;74.69;103064.16;4954023;29;20031;-82